createdAt,value
2022-12-08T00:01:09.112Z,22.45
2022-12-08T00:03:36.019Z,21.55
2022-12-08T00:06:22.628Z,21.20
2022-12-08T00:09:07.778Z,20.08
2022-12-08T00:11:34.367Z,20.58
2022-12-08T00:14:00.919Z,18.30
2022-12-08T00:16:27.353Z,19.60
2022-12-08T00:18:53.829Z,18.45
2022-12-08T00:21:20.243Z,18.63
2022-12-08T00:23:46.602Z,17.70
2022-12-08T00:26:12.965Z,17.55
2022-12-08T00:28:39.342Z,17.33
2022-12-08T00:31:10.115Z,17.70
2022-12-08T00:33:36.590Z,16.92
2022-12-08T00:36:10.194Z,20.33
2022-12-08T00:38:36.990Z,21.25
2022-12-08T00:41:04.218Z,22.00
2022-12-08T00:43:30.594Z,24.92
2022-12-08T00:45:56.976Z,26.58
2022-12-08T00:48:23.417Z,28.15
2022-12-08T00:50:49.900Z,30.25
2022-12-08T00:53:16.270Z,31.48
2022-12-08T00:55:43.332Z,30.58
2022-12-08T00:58:09.693Z,32.50
2022-12-08T01:00:36.075Z,35.63
2022-12-08T01:03:02.539Z,35.38
2022-12-08T01:05:28.971Z,35.00
2022-12-08T01:07:55.421Z,36.05
2022-12-08T01:10:21.853Z,39.20
2022-12-08T01:12:48.229Z,37.85
2022-12-08T01:15:14.628Z,37.95
2022-12-08T01:17:40.993Z,34.15
2022-12-08T01:20:07.937Z,35.30
2022-12-08T01:22:35.711Z,34.97
2022-12-08T01:25:02.778Z,36.88
2022-12-08T01:27:29.157Z,36.90
2022-12-08T01:29:55.524Z,34.20
2022-12-08T01:32:21.927Z,33.80
2022-12-08T01:34:48.350Z,33.47
2022-12-08T01:37:14.829Z,31.48
2022-12-08T01:39:41.228Z,33.10
2022-12-08T01:42:19.685Z,32.55
2022-12-08T01:44:45.980Z,32.05
2022-12-08T01:47:12.434Z,31.08
2022-12-08T01:49:38.823Z,31.48
2022-12-08T01:52:15.580Z,32.38
2022-12-08T01:54:48.649Z,30.65
2022-12-08T01:57:25.424Z,32.15
2022-12-08T01:59:55.188Z,31.70
2022-12-08T02:02:21.575Z,30.38
2022-12-08T02:04:47.978Z,30.02
2022-12-08T02:07:15.010Z,30.50
2022-12-08T02:09:41.661Z,30.52
2022-12-08T02:12:08.627Z,28.40
2022-12-08T02:14:35.269Z,30.08
2022-12-08T02:17:22.323Z,28.95
2022-12-08T02:20:14.939Z,28.60
2022-12-08T02:25:38.280Z,28.48
2022-12-08T02:28:44.925Z,29.38
2022-12-08T02:31:19.909Z,28.90
2022-12-08T02:34:10.200Z,29.08
2022-12-08T02:36:49.022Z,28.85
2022-12-08T02:39:21.402Z,27.77
2022-12-08T02:41:55.778Z,30.70
2022-12-08T02:44:30.116Z,27.60
2022-12-08T02:47:24.367Z,30.13
2022-12-08T02:49:50.770Z,28.63
2022-12-08T02:52:17.036Z,30.77
2022-12-08T02:54:47.707Z,31.10
2022-12-08T02:57:31.527Z,29.48
2022-12-08T03:00:21.481Z,30.33
2022-12-08T03:02:56.968Z,30.27
2022-12-08T03:05:32.524Z,30.58
2022-12-08T03:08:03.908Z,30.65
2022-12-08T03:10:36.011Z,31.35
2022-12-08T03:13:10.073Z,32.03
2022-12-08T03:15:37.378Z,32.30
2022-12-08T03:18:04.543Z,32.78
2022-12-08T03:20:32.925Z,32.15
2022-12-08T03:23:00.402Z,32.20
2022-12-08T03:25:30.922Z,31.92
2022-12-08T03:27:57.732Z,33.92
2022-12-08T03:30:24.110Z,34.05
2022-12-08T03:32:59.710Z,32.28
2022-12-08T03:35:28.525Z,34.53
2022-12-08T03:38:07.570Z,31.80
2022-12-08T03:40:34.418Z,31.10
2022-12-08T03:43:00.739Z,32.90
2022-12-08T03:45:27.107Z,31.98
2022-12-08T03:47:53.443Z,30.77
2022-12-08T03:50:19.777Z,33.80
2022-12-08T03:52:46.116Z,32.83
2022-12-08T03:55:12.480Z,34.85
2022-12-08T03:57:38.828Z,34.75
2022-12-08T04:00:07.167Z,34.85
2022-12-08T04:02:33.682Z,34.42
2022-12-08T04:05:00.039Z,32.85
2022-12-08T04:07:26.385Z,32.70
2022-12-08T04:09:52.720Z,33.92
2022-12-08T04:12:19.073Z,33.13
2022-12-08T04:14:45.402Z,36.75
2022-12-08T04:17:11.736Z,33.25
2022-12-08T04:19:38.058Z,35.97
2022-12-08T04:22:04.395Z,36.25
2022-12-08T04:24:30.716Z,37.28
2022-12-08T04:26:57.039Z,34.70
2022-12-08T04:29:23.485Z,36.25
2022-12-08T04:31:49.878Z,36.33
2022-12-08T04:34:16.227Z,36.03
2022-12-08T04:36:42.633Z,37.08
2022-12-08T04:39:09.039Z,33.45
2022-12-08T04:41:35.401Z,35.00
2022-12-08T04:44:01.754Z,34.70
2022-12-08T04:46:28.128Z,35.97
2022-12-08T04:48:54.592Z,35.08
2022-12-08T04:51:21.471Z,36.08
2022-12-08T04:53:48.210Z,36.33
2022-12-08T04:56:18.634Z,35.03
2022-12-08T04:58:45.554Z,35.05
2022-12-08T05:01:12.692Z,35.70
2022-12-08T05:03:39.314Z,35.10
2022-12-08T05:06:05.978Z,32.75
2022-12-08T05:08:32.436Z,32.40
2022-12-08T05:11:06.946Z,32.63
2022-12-08T05:13:33.601Z,32.20
2022-12-08T05:16:08.915Z,32.10
2022-12-08T05:18:35.911Z,31.88
2022-12-08T05:21:02.890Z,33.60
2022-12-08T05:23:29.254Z,32.38
2022-12-08T05:25:55.624Z,33.50
2022-12-08T05:31:08.470Z,30.27
2022-12-08T05:33:34.852Z,31.15
2022-12-08T05:36:01.221Z,31.17
2022-12-08T05:38:27.610Z,31.77
2022-12-08T05:40:53.950Z,32.63
2022-12-08T05:43:20.322Z,30.63
2022-12-08T05:45:46.789Z,28.05
2022-12-08T05:48:13.201Z,28.33
2022-12-08T05:50:39.899Z,30.38
2022-12-08T05:53:06.282Z,29.33
2022-12-08T05:55:32.656Z,27.63
2022-12-08T05:58:03.076Z,26.27
2022-12-08T06:00:34.740Z,23.75
2022-12-08T06:03:01.376Z,21.50
2022-12-08T06:05:27.888Z,22.67
2022-12-08T06:07:54.345Z,22.25
2022-12-08T06:10:20.754Z,22.27
2022-12-08T06:12:47.109Z,23.05
2022-12-08T06:16:25.242Z,23.08
2022-12-08T06:18:51.762Z,22.50
2022-12-08T06:21:18.551Z,24.60
2022-12-08T06:23:48.443Z,26.00
2022-12-08T06:26:15.720Z,25.02
2022-12-08T06:28:42.733Z,28.20
2022-12-08T06:31:25.542Z,28.15
2022-12-08T06:33:52.870Z,24.83
2022-12-08T06:36:21.644Z,27.77
2022-12-08T06:38:48.610Z,27.70
2022-12-08T06:41:15.176Z,28.70
2022-12-08T06:43:41.997Z,27.98
2022-12-08T06:46:11.278Z,27.95
2022-12-08T06:48:37.855Z,26.40
2022-12-08T06:51:12.254Z,28.67
2022-12-08T06:53:39.416Z,28.70
2022-12-08T06:56:06.437Z,29.13
2022-12-08T06:58:32.812Z,29.60
2022-12-08T07:01:07.051Z,29.30
2022-12-08T07:03:33.481Z,27.75
2022-12-08T07:06:03.792Z,27.27
2022-12-08T07:08:31.209Z,26.48
2022-12-08T07:10:57.659Z,24.92
2022-12-08T07:13:24.052Z,22.52
2022-12-08T07:15:50.379Z,20.25
2022-12-08T07:18:16.747Z,19.73
2022-12-08T07:20:43.079Z,16.48
2022-12-08T07:23:09.691Z,19.58
2022-12-08T07:25:36.022Z,16.90
2022-12-08T07:28:07.905Z,18.13
2022-12-08T07:30:34.284Z,16.83
2022-12-08T07:33:02.433Z,16.52
2022-12-08T07:35:28.769Z,18.23
2022-12-08T07:37:55.093Z,18.50
2022-12-08T07:40:21.423Z,18.58
2022-12-08T07:42:47.757Z,17.65
2022-12-08T07:45:14.178Z,18.92
2022-12-08T07:47:40.504Z,17.45
2022-12-08T07:50:07.900Z,19.98
2022-12-08T07:52:35.472Z,20.33
2022-12-08T07:55:02.038Z,21.77
2022-12-08T07:57:28.381Z,21.33
2022-12-08T07:59:54.713Z,22.90
2022-12-08T08:02:25.007Z,22.35
2022-12-08T08:04:52.729Z,21.83
2022-12-08T08:07:19.135Z,22.23
2022-12-08T08:09:45.701Z,22.08
2022-12-08T08:12:30.798Z,24.88
2022-12-08T08:14:58.210Z,23.63
2022-12-08T08:17:24.784Z,22.35
2022-12-08T08:19:51.299Z,21.75
2022-12-08T08:22:17.618Z,18.85
2022-12-08T08:24:45.244Z,18.95
2022-12-08T08:27:11.866Z,14.90
2022-12-08T08:29:38.210Z,17.52
2022-12-08T08:32:04.588Z,15.30
2022-12-08T08:34:31.044Z,17.48
2022-12-08T08:36:57.457Z,17.10
2022-12-08T08:39:23.910Z,16.98
2022-12-08T08:41:50.283Z,17.52
2022-12-08T08:44:16.639Z,18.13
2022-12-08T08:46:43.104Z,20.85
2022-12-08T08:49:09.519Z,21.40
2022-12-08T08:51:35.892Z,22.77
2022-12-08T08:54:02.251Z,23.30
2022-12-08T08:56:28.634Z,24.50
2022-12-08T08:58:55.079Z,24.40
2022-12-08T09:01:24.460Z,24.58
2022-12-08T09:03:51.224Z,25.75
2022-12-08T09:06:18.076Z,24.35
2022-12-08T09:08:45.007Z,23.20
2022-12-08T09:11:11.849Z,23.35
2022-12-08T09:13:38.420Z,23.05
2022-12-08T09:16:06.320Z,25.02
2022-12-08T09:18:32.730Z,20.63
2022-12-08T09:21:12.950Z,23.92
2022-12-08T09:23:39.814Z,21.33
2022-12-08T09:26:06.642Z,22.17
2022-12-08T09:28:33.475Z,24.23
2022-12-08T09:31:00.209Z,21.83
2022-12-08T09:33:26.681Z,21.98
2022-12-08T09:35:53.043Z,21.42
2022-12-08T09:38:19.409Z,20.67
2022-12-08T09:40:53.522Z,19.85
2022-12-08T09:43:22.825Z,20.05
2022-12-08T09:45:51.593Z,16.92
2022-12-08T09:48:24.333Z,18.30
2022-12-08T09:50:54.309Z,19.65
2022-12-08T09:53:36.636Z,19.88
2022-12-08T09:56:08.898Z,19.30
2022-12-08T09:58:57.927Z,17.92
2022-12-08T10:01:28.561Z,18.17
2022-12-08T10:03:55.991Z,19.70
2022-12-08T10:06:59.904Z,17.73
2022-12-08T10:09:50.197Z,16.90
2022-12-08T10:12:51.979Z,17.70
2022-12-08T10:15:33.426Z,14.80
2022-12-08T10:18:04.402Z,18.40
2022-12-08T10:20:39.986Z,17.67
2022-12-08T10:23:15.548Z,18.02
2022-12-08T10:25:46.331Z,18.42
2022-12-08T10:28:12.761Z,18.52
2022-12-08T10:30:39.290Z,17.77
2022-12-08T10:33:10.556Z,18.52
2022-12-08T10:35:49.105Z,18.67
2022-12-08T10:38:36.089Z,18.20
2022-12-08T10:41:11.688Z,18.67
2022-12-08T10:43:44.834Z,18.00
2022-12-08T10:46:13.458Z,18.23
2022-12-08T10:48:57.425Z,18.95
2022-12-08T10:51:29.741Z,19.08
2022-12-08T10:56:26.826Z,21.63
2022-12-08T10:59:17.495Z,21.05
2022-12-08T11:01:51.819Z,22.45
2022-12-08T11:04:20.612Z,22.92
2022-12-08T11:06:47.710Z,22.02
2022-12-08T11:09:17.036Z,21.85
2022-12-08T11:12:17.950Z,23.40
2022-12-08T11:14:44.176Z,24.88
2022-12-08T11:17:13.933Z,21.95
2022-12-08T11:19:45.426Z,23.83
2022-12-08T11:22:22.294Z,24.40
2022-12-08T11:24:58.439Z,23.67
2022-12-08T11:27:24.831Z,23.83
2022-12-08T11:29:51.410Z,24.60
2022-12-08T11:32:17.738Z,21.67
2022-12-08T11:34:57.481Z,22.25
2022-12-08T11:37:34.435Z,23.13
2022-12-08T11:40:10.402Z,23.75
2022-12-08T11:42:52.091Z,23.00
2022-12-08T11:45:27.406Z,24.55
2022-12-08T11:48:17.591Z,24.25
2022-12-08T11:50:51.391Z,22.92
2022-12-08T11:53:51.451Z,22.17
2022-12-08T11:56:32.468Z,20.80
2022-12-08T11:59:10.780Z,21.50
2022-12-08T12:01:42.386Z,20.90
2022-12-08T12:04:36.710Z,22.48
2022-12-08T12:07:24.546Z,20.73
2022-12-08T12:10:07.910Z,18.85
2022-12-08T12:12:49.773Z,19.65
2022-12-08T12:15:37.837Z,17.85
2022-12-08T12:18:26.051Z,18.60
2022-12-08T12:20:58.571Z,17.48
2022-12-08T12:23:40.422Z,17.98
2022-12-08T12:26:08.724Z,16.85
2022-12-08T12:28:56.416Z,17.15
2022-12-08T12:31:31.319Z,17.13
2022-12-08T12:34:07.418Z,17.90
2022-12-08T12:36:46.703Z,17.88
2022-12-08T12:39:13.774Z,18.10
2022-12-08T12:41:50.736Z,18.55
2022-12-08T12:44:29.138Z,19.67
2022-12-08T12:47:00.698Z,20.88
2022-12-08T12:49:45.988Z,19.98
2022-12-08T12:52:15.223Z,19.95
2022-12-08T12:55:10.220Z,21.77
2022-12-08T12:57:50.808Z,21.27
2022-12-08T13:00:19.497Z,22.60
2022-12-08T13:02:48.998Z,21.27
2022-12-08T13:05:23.228Z,20.55
2022-12-08T13:07:55.543Z,21.92
2022-12-08T13:13:05.519Z,19.55
2022-12-08T13:16:18.774Z,19.58
2022-12-08T13:19:13.156Z,19.80
2022-12-08T13:21:39.713Z,19.00
2022-12-08T13:24:35.594Z,20.13
2022-12-08T13:27:04.958Z,19.60
2022-12-08T13:29:32.707Z,20.90
2022-12-08T13:32:03.555Z,21.02
2022-12-08T13:34:45.340Z,20.77
2022-12-08T13:37:11.641Z,20.70
2022-12-08T13:39:40.916Z,22.48
2022-12-08T13:42:35.095Z,21.80
2022-12-08T13:45:48.680Z,21.33
2022-12-08T13:49:52.716Z,22.85
2022-12-08T13:57:33.127Z,22.42
2022-12-08T14:00:08.696Z,20.95
2022-12-08T14:02:47.340Z,22.17
2022-12-08T14:05:18.557Z,21.45
2022-12-08T14:07:47.200Z,22.45
2022-12-08T14:10:18.200Z,21.40
2022-12-08T14:12:46.958Z,22.05
2022-12-08T14:15:14.368Z,21.52
2022-12-08T14:17:41.382Z,21.90
2022-12-08T14:20:27.392Z,21.90
2022-12-08T14:22:53.909Z,21.38
2022-12-08T14:25:21.561Z,23.45
2022-12-08T14:27:48.222Z,21.00
2022-12-08T14:30:14.729Z,20.85
2022-12-08T14:32:46.707Z,21.33
2022-12-08T14:35:23.497Z,21.45
2022-12-08T14:37:51.570Z,23.65
2022-12-08T14:40:37.203Z,23.33
2022-12-08T14:43:15.254Z,24.65
2022-12-08T14:45:44.560Z,25.35
2022-12-08T14:48:38.815Z,26.23
2022-12-08T14:51:07.502Z,27.48
2022-12-08T14:53:37.542Z,26.15
2022-12-08T14:56:47.323Z,26.48
2022-12-08T14:59:15.012Z,26.88
2022-12-08T15:01:42.889Z,26.73
2022-12-08T15:04:12.259Z,26.50
2022-12-08T15:06:54.235Z,27.27
2022-12-08T15:09:37.173Z,26.75
2022-12-08T15:12:15.724Z,25.67
2022-12-08T15:14:44.120Z,25.83
2022-12-08T15:17:53.772Z,26.70
2022-12-08T15:20:35.864Z,26.23
2022-12-08T15:23:02.537Z,26.17
2022-12-08T15:25:29.010Z,24.98
2022-12-08T15:27:57.805Z,25.38
2022-12-08T15:30:28.514Z,24.77
2022-12-08T15:32:56.036Z,26.60
2022-12-08T15:35:22.683Z,26.02
2022-12-08T15:37:49.094Z,26.42
2022-12-08T15:40:18.690Z,26.17
2022-12-08T15:42:45.400Z,25.20
2022-12-08T15:45:13.710Z,25.67
2022-12-08T15:47:40.155Z,25.02
2022-12-08T15:50:07.567Z,25.60
2022-12-08T15:52:36.765Z,25.23
2022-12-08T15:55:03.167Z,23.90
2022-12-08T15:58:04.416Z,23.05
2022-12-08T16:00:50.510Z,22.77
2022-12-08T16:04:19.920Z,22.25
2022-12-08T16:09:12.249Z,24.40
2022-12-08T16:12:06.706Z,22.10
2022-12-08T16:15:39.178Z,23.67
2022-12-08T16:17:21.279Z,23.60
2022-12-08T16:19:47.648Z,21.95
2022-12-08T16:22:54.610Z,24.52
2022-12-08T16:25:18.909Z,24.17
2022-12-08T16:28:17.259Z,23.85
2022-12-08T16:30:33.664Z,25.65
2022-12-08T16:33:00.045Z,23.38
2022-12-08T16:35:26.393Z,22.73
2022-12-08T16:37:52.764Z,22.88
2022-12-08T16:40:19.171Z,23.67
2022-12-08T16:42:49.850Z,25.13
2022-12-08T16:45:17.324Z,23.38
2022-12-08T16:47:49.755Z,24.02
2022-12-08T16:50:19.100Z,22.83
2022-12-08T16:52:46.411Z,24.42
2022-12-08T16:55:15.335Z,23.58
2022-12-08T16:57:42.104Z,25.52
2022-12-08T17:00:11.184Z,23.67
2022-12-08T17:02:37.605Z,24.98
2022-12-08T17:05:04.524Z,24.27
2022-12-08T17:07:30.940Z,24.70
2022-12-08T17:09:58.197Z,25.88
2022-12-08T17:12:24.594Z,26.63
2022-12-08T17:14:50.946Z,25.33
2022-12-08T17:17:17.336Z,25.17
2022-12-08T17:19:43.756Z,27.42
2022-12-08T17:22:10.136Z,25.92
2022-12-08T17:24:37.326Z,26.38
2022-12-08T17:27:04.294Z,25.75
2022-12-08T17:29:31.799Z,28.17
2022-12-08T17:31:58.373Z,27.05
2022-12-08T17:34:24.879Z,26.40
2022-12-08T17:36:51.664Z,26.38
2022-12-08T17:39:19.154Z,26.00
2022-12-08T17:41:46.184Z,25.92
2022-12-08T17:44:14.586Z,26.67
2022-12-08T17:46:45.259Z,26.42
2022-12-08T17:49:18.710Z,26.35
2022-12-08T17:51:49.197Z,26.00
2022-12-08T17:54:16.842Z,26.33
2022-12-08T17:56:43.642Z,25.08
2022-12-08T17:59:10.774Z,23.52
2022-12-08T18:01:37.452Z,26.33
2022-12-08T18:04:05.308Z,28.88
2022-12-08T18:06:31.923Z,28.40
2022-12-08T18:08:59.406Z,27.77
2022-12-08T18:11:26.793Z,29.65
2022-12-08T18:13:53.975Z,29.30
2022-12-08T18:16:23.396Z,30.70
2022-12-08T18:18:49.941Z,31.30
2022-12-08T18:21:23.007Z,29.40
2022-12-08T18:23:50.527Z,29.75
2022-12-08T18:26:16.926Z,28.70
2022-12-08T18:28:43.763Z,29.58
2022-12-08T18:31:11.661Z,29.75
2022-12-08T18:33:39.853Z,29.13
2022-12-08T18:36:10.773Z,28.20
2022-12-08T18:38:38.109Z,31.88
2022-12-08T18:41:09.800Z,29.00
2022-12-08T18:43:36.872Z,29.10
2022-12-08T18:46:04.700Z,28.45
2022-12-08T18:48:31.112Z,28.38
2022-12-08T18:50:57.453Z,29.08
2022-12-08T18:53:23.818Z,28.52
2022-12-08T18:55:50.938Z,30.02
2022-12-08T18:58:17.865Z,30.38
2022-12-08T19:00:44.273Z,30.13
2022-12-08T19:03:10.858Z,31.27
2022-12-08T19:05:37.498Z,29.23
2022-12-08T19:08:03.979Z,29.67
2022-12-08T19:10:32.047Z,29.27
2022-12-08T19:12:58.384Z,30.40
2022-12-08T19:15:24.753Z,29.70
2022-12-08T19:17:51.093Z,31.05
2022-12-08T19:20:17.598Z,29.92
2022-12-08T19:22:43.938Z,30.10
2022-12-08T19:25:10.415Z,29.15
2022-12-08T19:27:36.786Z,25.95
2022-12-08T19:30:04.053Z,27.35
2022-12-08T19:32:30.949Z,27.92
2022-12-08T19:34:57.315Z,27.88
2022-12-08T19:37:23.661Z,30.35
2022-12-08T19:40:09.063Z,29.35
2022-12-08T19:42:54.338Z,30.63
2022-12-08T19:45:22.155Z,30.77
2022-12-08T19:47:48.923Z,31.15
2022-12-08T19:50:34.980Z,29.92
2022-12-08T19:53:11.928Z,31.95
2022-12-08T19:55:38.679Z,31.50
2022-12-08T19:58:06.788Z,31.45
2022-12-08T20:00:34.111Z,30.70
2022-12-08T20:03:02.074Z,32.85
2022-12-08T20:05:30.131Z,31.23
2022-12-08T20:07:56.698Z,32.55
2022-12-08T20:10:29.717Z,32.45
2022-12-08T20:13:16.517Z,32.38
2022-12-08T20:15:44.867Z,31.27
2022-12-08T20:18:12.634Z,31.45
2022-12-08T20:20:40.029Z,32.08
2022-12-08T20:23:06.427Z,31.05
2022-12-08T20:25:33.124Z,29.83
2022-12-08T20:27:59.577Z,30.90
2022-12-08T20:30:25.930Z,31.75
2022-12-08T20:32:52.272Z,30.52
2022-12-08T20:35:18.685Z,30.88
2022-12-08T20:37:45.064Z,29.88
2022-12-08T20:40:11.673Z,32.83
2022-12-08T20:42:38.055Z,34.28
2022-12-08T20:45:07.173Z,32.65
2022-12-08T20:47:33.673Z,32.38
2022-12-08T20:50:00.299Z,34.90
2022-12-08T20:52:26.746Z,35.25
2022-12-08T20:54:53.243Z,31.98
2022-12-08T20:57:19.893Z,32.45
2022-12-08T20:59:46.338Z,30.80
2022-12-08T21:02:12.884Z,29.20
2022-12-08T21:04:39.517Z,30.05
2022-12-08T21:07:08.625Z,33.15
2022-12-08T21:09:36.207Z,34.25
2022-12-08T21:12:02.835Z,36.45
2022-12-08T21:14:29.413Z,33.75
2022-12-08T21:16:56.190Z,35.65
2022-12-08T21:19:22.732Z,35.83
2022-12-08T21:21:50.499Z,37.53
2022-12-08T21:24:18.075Z,40.85
2022-12-08T21:26:44.824Z,38.70
2022-12-08T21:29:12.116Z,38.70
2022-12-08T21:31:38.713Z,37.78
2022-12-08T21:34:05.312Z,40.95
2022-12-08T21:36:32.005Z,38.25
2022-12-08T21:39:00.736Z,34.28
2022-12-08T21:41:45.883Z,34.25
2022-12-08T21:44:14.958Z,35.63
2022-12-08T21:46:42.344Z,34.72
2022-12-08T21:49:08.953Z,32.97
2022-12-08T21:51:37.817Z,34.45
2022-12-08T21:54:04.957Z,32.42
2022-12-08T21:56:31.496Z,32.85
2022-12-08T21:58:58.309Z,30.67
2022-12-08T22:01:24.851Z,32.75
2022-12-08T22:03:51.458Z,33.53
2022-12-08T22:06:18.007Z,34.00
2022-12-08T22:08:44.759Z,35.92
2022-12-08T22:11:12.093Z,36.25
2022-12-08T22:13:40.527Z,38.03
2022-12-08T22:16:11.448Z,38.25
2022-12-08T22:18:38.279Z,37.33
2022-12-08T22:21:09.811Z,36.45
2022-12-08T22:23:36.497Z,36.63
2022-12-08T22:26:04.081Z,34.20
2022-12-08T22:28:33.518Z,34.95
2022-12-08T22:31:00.908Z,38.83
2022-12-08T22:33:30.511Z,37.10
2022-12-08T22:35:58.152Z,37.38
2022-12-08T22:38:25.187Z,37.65
2022-12-08T22:40:52.264Z,39.08
2022-12-08T22:43:19.190Z,39.72
2022-12-08T22:45:45.763Z,40.58
2022-12-08T22:48:12.463Z,38.25
2022-12-08T22:50:39.106Z,38.42
2022-12-08T22:53:05.852Z,37.17
2022-12-08T22:55:32.766Z,40.35
2022-12-08T22:57:59.368Z,39.92
2022-12-08T23:00:25.739Z,39.50
2022-12-08T23:02:52.166Z,39.78
2022-12-08T23:05:18.855Z,39.60
2022-12-08T23:07:45.454Z,40.40
2022-12-08T23:10:12.221Z,37.63
2022-12-08T23:12:38.952Z,36.63
2022-12-08T23:15:06.048Z,35.95
2022-12-08T23:17:32.512Z,36.88
2022-12-08T23:19:58.938Z,36.42
2022-12-08T23:22:25.372Z,35.55
2022-12-08T23:24:51.867Z,33.75
2022-12-08T23:27:18.266Z,33.15
2022-12-08T23:29:44.891Z,31.90
2022-12-08T23:32:11.311Z,35.38
2022-12-08T23:34:37.970Z,33.08
2022-12-08T23:37:04.447Z,33.67
2022-12-08T23:39:30.836Z,31.83
2022-12-08T23:41:57.363Z,32.55
2022-12-08T23:44:23.945Z,31.35
2022-12-08T23:46:50.531Z,29.33
2022-12-08T23:49:17.218Z,30.25
2022-12-08T23:51:43.674Z,27.52
2022-12-08T23:54:10.074Z,31.13
2022-12-08T23:56:36.420Z,32.35
2022-12-08T23:59:02.787Z,30.88
